sensor_id;sensor_type;location;lat;lon;timestamp;P1;durP1;ratioP1;P2;durP2;ratioP2
12906;SDS011;6521;50.498;8.474;2023-07-28T00:02:21;5.15;;;2.35;;
12906;SDS011;6521;50.498;8.474;2023-07-28T00:04:52;6.40;;;2.50;;
12906;SDS011;6521;50.498;8.474;2023-07-28T00:07:30;3.67;;;2.50;;
12906;SDS011;6521;50.498;8.474;2023-07-28T00:10:04;3.20;;;2.70;;
12906;SDS011;6521;50.498;8.474;2023-07-28T00:12:35;2.92;;;2.58;;
12906;SDS011;6521;50.498;8.474;2023-07-28T00:15:06;4.00;;;2.50;;
12906;SDS011;6521;50.498;8.474;2023-07-28T00:17:36;2.70;;;2.50;;
12906;SDS011;6521;50.498;8.474;2023-07-28T00:20:07;4.28;;;2.70;;
12906;SDS011;6521;50.498;8.474;2023-07-28T00:22:40;4.90;;;2.40;;
12906;SDS011;6521;50.498;8.474;2023-07-28T00:25:10;3.38;;;3.08;;
12906;SDS011;6521;50.498;8.474;2023-07-28T00:27:41;2.72;;;2.35;;
12906;SDS011;6521;50.498;8.474;2023-07-28T00:30:12;3.13;;;2.83;;
12906;SDS011;6521;50.498;8.474;2023-07-28T00:32:43;2.65;;;2.38;;
12906;SDS011;6521;50.498;8.474;2023-07-28T00:35:13;2.38;;;2.17;;
12906;SDS011;6521;50.498;8.474;2023-07-28T00:37:44;4.93;;;3.00;;
12906;SDS011;6521;50.498;8.474;2023-07-28T00:40:15;6.22;;;2.50;;
12906;SDS011;6521;50.498;8.474;2023-07-28T00:42:45;3.42;;;2.60;;
12906;SDS011;6521;50.498;8.474;2023-07-28T00:45:17;4.57;;;2.22;;
12906;SDS011;6521;50.498;8.474;2023-07-28T00:47:48;2.53;;;2.20;;
12906;SDS011;6521;50.498;8.474;2023-07-28T00:50:18;3.35;;;2.08;;
12906;SDS011;6521;50.498;8.474;2023-07-28T00:52:50;2.95;;;2.38;;
12906;SDS011;6521;50.498;8.474;2023-07-28T00:55:22;2.45;;;2.25;;
12906;SDS011;6521;50.498;8.474;2023-07-28T00:57:53;3.40;;;2.90;;
12906;SDS011;6521;50.498;8.474;2023-07-28T01:00:23;3.17;;;2.67;;
12906;SDS011;6521;50.498;8.474;2023-07-28T01:02:54;3.03;;;2.58;;
12906;SDS011;6521;50.498;8.474;2023-07-28T01:05:26;2.33;;;2.10;;
12906;SDS011;6521;50.498;8.474;2023-07-28T01:08:02;2.67;;;2.13;;
12906;SDS011;6521;50.498;8.474;2023-07-28T01:10:40;3.60;;;2.60;;
12906;SDS011;6521;50.498;8.474;2023-07-28T01:13:12;4.13;;;2.78;;
12906;SDS011;6521;50.498;8.474;2023-07-28T01:15:43;3.85;;;2.45;;
12906;SDS011;6521;50.498;8.474;2023-07-28T01:18:14;4.78;;;2.13;;
12906;SDS011;6521;50.498;8.474;2023-07-28T01:20:46;2.13;;;1.92;;
12906;SDS011;6521;50.498;8.474;2023-07-28T01:23:18;2.40;;;2.20;;
12906;SDS011;6521;50.498;8.474;2023-07-28T01:28:39;2.78;;;1.90;;
12906;SDS011;6521;50.498;8.474;2023-07-28T01:31:12;6.10;;;2.40;;
12906;SDS011;6521;50.498;8.474;2023-07-28T01:33:42;2.47;;;2.15;;
12906;SDS011;6521;50.498;8.474;2023-07-28T01:36:13;3.40;;;2.88;;
12906;SDS011;6521;50.498;8.474;2023-07-28T01:38:44;4.18;;;2.38;;
12906;SDS011;6521;50.498;8.474;2023-07-28T01:41:15;2.05;;;1.80;;
12906;SDS011;6521;50.498;8.474;2023-07-28T01:43:48;2.58;;;2.38;;
12906;SDS011;6521;50.498;8.474;2023-07-28T01:46:20;2.53;;;2.00;;
12906;SDS011;6521;50.498;8.474;2023-07-28T01:48:51;3.30;;;2.28;;
12906;SDS011;6521;50.498;8.474;2023-07-28T01:51:21;3.20;;;2.72;;
12906;SDS011;6521;50.498;8.474;2023-07-28T01:53:52;3.28;;;2.58;;
12906;SDS011;6521;50.498;8.474;2023-07-28T01:56:23;3.58;;;2.22;;
12906;SDS011;6521;50.498;8.474;2023-07-28T01:59:01;2.75;;;2.50;;
12906;SDS011;6521;50.498;8.474;2023-07-28T02:01:32;3.08;;;2.20;;
12906;SDS011;6521;50.498;8.474;2023-07-28T02:04:05;3.03;;;2.00;;
12906;SDS011;6521;50.498;8.474;2023-07-28T02:06:36;3.38;;;2.15;;
12906;SDS011;6521;50.498;8.474;2023-07-28T02:09:07;5.45;;;2.28;;
12906;SDS011;6521;50.498;8.474;2023-07-28T02:11:38;2.92;;;2.38;;
12906;SDS011;6521;50.498;8.474;2023-07-28T02:14:09;2.50;;;2.00;;
12906;SDS011;6521;50.498;8.474;2023-07-28T02:16:39;2.40;;;2.20;;
12906;SDS011;6521;50.498;8.474;2023-07-28T02:19:10;4.53;;;2.10;;
12906;SDS011;6521;50.498;8.474;2023-07-28T02:21:41;2.25;;;2.05;;
12906;SDS011;6521;50.498;8.474;2023-07-28T02:24:12;2.42;;;1.95;;
12906;SDS011;6521;50.498;8.474;2023-07-28T02:26:47;2.00;;;1.50;;
12906;SDS011;6521;50.498;8.474;2023-07-28T02:29:20;1.92;;;1.67;;
12906;SDS011;6521;50.498;8.474;2023-07-28T02:31:51;4.10;;;1.85;;
12906;SDS011;6521;50.498;8.474;2023-07-28T02:34:24;4.50;;;1.80;;
12906;SDS011;6521;50.498;8.474;2023-07-28T02:36:54;4.55;;;2.00;;
12906;SDS011;6521;50.498;8.474;2023-07-28T02:39:26;1.90;;;1.80;;
12906;SDS011;6521;50.498;8.474;2023-07-28T02:41:57;2.83;;;1.63;;
12906;SDS011;6521;50.498;8.474;2023-07-28T02:44:28;1.80;;;1.45;;
12906;SDS011;6521;50.498;8.474;2023-07-28T02:46:59;1.40;;;1.30;;
12906;SDS011;6521;50.498;8.474;2023-07-28T02:49:30;1.70;;;1.40;;
12906;SDS011;6521;50.498;8.474;2023-07-28T02:52:01;2.20;;;1.55;;
12906;SDS011;6521;50.498;8.474;2023-07-28T02:54:33;1.90;;;1.60;;
12906;SDS011;6521;50.498;8.474;2023-07-28T02:57:07;1.50;;;1.30;;
12906;SDS011;6521;50.498;8.474;2023-07-28T02:59:38;1.65;;;1.55;;
12906;SDS011;6521;50.498;8.474;2023-07-28T03:02:09;2.63;;;1.50;;
12906;SDS011;6521;50.498;8.474;2023-07-28T03:04:40;1.80;;;1.70;;
12906;SDS011;6521;50.498;8.474;2023-07-28T03:07:32;1.92;;;1.45;;
12906;SDS011;6521;50.498;8.474;2023-07-28T03:10:09;2.38;;;1.55;;
12906;SDS011;6521;50.498;8.474;2023-07-28T03:12:46;2.80;;;1.40;;
12906;SDS011;6521;50.498;8.474;2023-07-28T03:15:17;1.77;;;1.40;;
12906;SDS011;6521;50.498;8.474;2023-07-28T03:17:50;2.25;;;1.30;;
12906;SDS011;6521;50.498;8.474;2023-07-28T03:20:22;1.88;;;1.60;;
12906;SDS011;6521;50.498;8.474;2023-07-28T03:22:53;1.92;;;1.83;;
12906;SDS011;6521;50.498;8.474;2023-07-28T03:25:25;2.03;;;1.83;;
12906;SDS011;6521;50.498;8.474;2023-07-28T03:28:00;2.50;;;1.70;;
12906;SDS011;6521;50.498;8.474;2023-07-28T03:30:31;1.40;;;1.30;;
12906;SDS011;6521;50.498;8.474;2023-07-28T03:33:04;1.92;;;1.38;;
12906;SDS011;6521;50.498;8.474;2023-07-28T03:35:35;2.17;;;1.90;;
12906;SDS011;6521;50.498;8.474;2023-07-28T03:38:11;1.85;;;1.40;;
12906;SDS011;6521;50.498;8.474;2023-07-28T03:40:45;2.30;;;1.50;;
12906;SDS011;6521;50.498;8.474;2023-07-28T03:43:17;4.55;;;1.67;;
12906;SDS011;6521;50.498;8.474;2023-07-28T03:45:48;1.50;;;1.38;;
12906;SDS011;6521;50.498;8.474;2023-07-28T03:48:19;3.35;;;1.20;;
12906;SDS011;6521;50.498;8.474;2023-07-28T03:50:52;1.90;;;1.63;;
12906;SDS011;6521;50.498;8.474;2023-07-28T03:53:25;1.58;;;1.48;;
12906;SDS011;6521;50.498;8.474;2023-07-28T03:55:57;1.52;;;1.40;;
12906;SDS011;6521;50.498;8.474;2023-07-28T03:58:29;1.48;;;1.25;;
12906;SDS011;6521;50.498;8.474;2023-07-28T04:01:00;1.80;;;1.52;;
12906;SDS011;6521;50.498;8.474;2023-07-28T04:03:31;3.08;;;1.55;;
12906;SDS011;6521;50.498;8.474;2023-07-28T04:06:05;2.90;;;1.42;;
12906;SDS011;6521;50.498;8.474;2023-07-28T04:08:40;3.20;;;1.55;;
12906;SDS011;6521;50.498;8.474;2023-07-28T04:11:11;1.70;;;1.60;;
12906;SDS011;6521;50.498;8.474;2023-07-28T04:13:42;1.70;;;1.55;;
12906;SDS011;6521;50.498;8.474;2023-07-28T04:16:13;1.60;;;1.50;;
12906;SDS011;6521;50.498;8.474;2023-07-28T04:18:44;1.60;;;1.45;;
12906;SDS011;6521;50.498;8.474;2023-07-28T04:21:15;1.90;;;1.50;;
12906;SDS011;6521;50.498;8.474;2023-07-28T04:23:49;1.73;;;1.35;;
12906;SDS011;6521;50.498;8.474;2023-07-28T04:26:19;4.30;;;1.50;;
12906;SDS011;6521;50.498;8.474;2023-07-28T04:28:55;1.55;;;1.45;;
12906;SDS011;6521;50.498;8.474;2023-07-28T04:31:27;3.88;;;1.30;;
12906;SDS011;6521;50.498;8.474;2023-07-28T04:34:07;1.92;;;1.52;;
12906;SDS011;6521;50.498;8.474;2023-07-28T04:36:56;1.40;;;1.30;;
12906;SDS011;6521;50.498;8.474;2023-07-28T04:39:32;1.38;;;1.27;;
12906;SDS011;6521;50.498;8.474;2023-07-28T04:42:04;1.33;;;1.20;;
12906;SDS011;6521;50.498;8.474;2023-07-28T04:44:37;3.33;;;1.20;;
12906;SDS011;6521;50.498;8.474;2023-07-28T04:47:10;1.90;;;1.50;;
12906;SDS011;6521;50.498;8.474;2023-07-28T04:49:43;1.30;;;1.20;;
12906;SDS011;6521;50.498;8.474;2023-07-28T04:52:14;5.13;;;1.40;;
12906;SDS011;6521;50.498;8.474;2023-07-28T04:55:03;2.28;;;1.15;;
12906;SDS011;6521;50.498;8.474;2023-07-28T04:57:36;2.28;;;1.60;;
12906;SDS011;6521;50.498;8.474;2023-07-28T05:00:12;1.20;;;1.10;;
12906;SDS011;6521;50.498;8.474;2023-07-28T05:02:43;1.40;;;1.30;;
12906;SDS011;6521;50.498;8.474;2023-07-28T05:05:16;3.45;;;1.23;;
12906;SDS011;6521;50.498;8.474;2023-07-28T05:07:47;6.75;;;1.65;;
12906;SDS011;6521;50.498;8.474;2023-07-28T05:10:20;1.40;;;1.17;;
12906;SDS011;6521;50.498;8.474;2023-07-28T05:12:54;1.77;;;1.20;;
12906;SDS011;6521;50.498;8.474;2023-07-28T05:15:27;3.83;;;1.10;;
12906;SDS011;6521;50.498;8.474;2023-07-28T05:17:57;1.02;;;1.02;;
12906;SDS011;6521;50.498;8.474;2023-07-28T05:20:43;2.92;;;0.93;;
12906;SDS011;6521;50.498;8.474;2023-07-28T05:23:22;2.15;;;1.10;;
12906;SDS011;6521;50.498;8.474;2023-07-28T05:25:53;0.98;;;0.95;;
12906;SDS011;6521;50.498;8.474;2023-07-28T05:28:23;3.83;;;1.02;;
12906;SDS011;6521;50.498;8.474;2023-07-28T05:31:04;5.28;;;1.20;;
12906;SDS011;6521;50.498;8.474;2023-07-28T05:33:38;2.53;;;1.10;;
12906;SDS011;6521;50.498;8.474;2023-07-28T05:36:09;1.20;;;1.10;;
12906;SDS011;6521;50.498;8.474;2023-07-28T05:38:41;1.67;;;1.10;;
12906;SDS011;6521;50.498;8.474;2023-07-28T05:41:12;1.65;;;1.00;;
12906;SDS011;6521;50.498;8.474;2023-07-28T05:43:43;0.88;;;0.88;;
12906;SDS011;6521;50.498;8.474;2023-07-28T05:46:14;3.17;;;1.00;;
12906;SDS011;6521;50.498;8.474;2023-07-28T05:48:48;5.10;;;0.95;;
12906;SDS011;6521;50.498;8.474;2023-07-28T05:51:19;0.90;;;0.90;;
12906;SDS011;6521;50.498;8.474;2023-07-28T05:53:50;1.25;;;0.88;;
12906;SDS011;6521;50.498;8.474;2023-07-28T05:56:24;0.80;;;0.80;;
12906;SDS011;6521;50.498;8.474;2023-07-28T05:58:55;4.97;;;0.90;;
12906;SDS011;6521;50.498;8.474;2023-07-28T06:01:26;1.98;;;0.60;;
12906;SDS011;6521;50.498;8.474;2023-07-28T06:04:17;0.80;;;0.80;;
12906;SDS011;6521;50.498;8.474;2023-07-28T06:06:51;1.98;;;0.77;;
12906;SDS011;6521;50.498;8.474;2023-07-28T06:09:22;4.22;;;1.00;;
12906;SDS011;6521;50.498;8.474;2023-07-28T06:11:53;2.22;;;1.08;;
12906;SDS011;6521;50.498;8.474;2023-07-28T06:14:24;1.95;;;0.80;;
12906;SDS011;6521;50.498;8.474;2023-07-28T06:16:55;1.13;;;0.77;;
12906;SDS011;6521;50.498;8.474;2023-07-28T06:19:29;0.80;;;0.80;;
12906;SDS011;6521;50.498;8.474;2023-07-28T06:22:02;1.70;;;0.77;;
12906;SDS011;6521;50.498;8.474;2023-07-28T06:24:37;4.68;;;1.00;;
12906;SDS011;6521;50.498;8.474;2023-07-28T06:27:09;1.35;;;0.80;;
12906;SDS011;6521;50.498;8.474;2023-07-28T06:29:44;0.70;;;0.70;;
12906;SDS011;6521;50.498;8.474;2023-07-28T06:32:18;1.05;;;0.90;;
12906;SDS011;6521;50.498;8.474;2023-07-28T06:34:51;2.80;;;0.80;;
12906;SDS011;6521;50.498;8.474;2023-07-28T06:37:23;1.13;;;0.65;;
12906;SDS011;6521;50.498;8.474;2023-07-28T06:39:54;2.25;;;0.93;;
12906;SDS011;6521;50.498;8.474;2023-07-28T06:42:27;0.77;;;0.73;;
12906;SDS011;6521;50.498;8.474;2023-07-28T06:45:02;0.63;;;0.63;;
12906;SDS011;6521;50.498;8.474;2023-07-28T06:47:33;2.20;;;1.00;;
12906;SDS011;6521;50.498;8.474;2023-07-28T06:50:04;3.78;;;0.70;;
12906;SDS011;6521;50.498;8.474;2023-07-28T06:52:36;0.73;;;0.65;;
12906;SDS011;6521;50.498;8.474;2023-07-28T06:55:10;1.23;;;0.70;;
12906;SDS011;6521;50.498;8.474;2023-07-28T06:57:40;1.20;;;0.80;;
12906;SDS011;6521;50.498;8.474;2023-07-28T07:00:11;3.03;;;1.10;;
12906;SDS011;6521;50.498;8.474;2023-07-28T07:02:43;1.95;;;0.70;;
12906;SDS011;6521;50.498;8.474;2023-07-28T07:05:16;2.28;;;0.60;;
12906;SDS011;6521;50.498;8.474;2023-07-28T07:07:49;0.55;;;0.55;;
12906;SDS011;6521;50.498;8.474;2023-07-28T07:10:21;2.22;;;0.50;;
12906;SDS011;6521;50.498;8.474;2023-07-28T07:12:51;0.85;;;0.55;;
12906;SDS011;6521;50.498;8.474;2023-07-28T07:15:22;1.50;;;0.80;;
12906;SDS011;6521;50.498;8.474;2023-07-28T07:17:54;1.10;;;0.63;;
12906;SDS011;6521;50.498;8.474;2023-07-28T07:20:25;1.15;;;0.60;;
12906;SDS011;6521;50.498;8.474;2023-07-28T07:22:58;0.50;;;0.50;;
12906;SDS011;6521;50.498;8.474;2023-07-28T07:25:31;0.50;;;0.50;;
12906;SDS011;6521;50.498;8.474;2023-07-28T07:28:09;0.85;;;0.60;;
12906;SDS011;6521;50.498;8.474;2023-07-28T07:30:40;0.47;;;0.47;;
12906;SDS011;6521;50.498;8.474;2023-07-28T07:33:14;0.98;;;0.70;;
12906;SDS011;6521;50.498;8.474;2023-07-28T07:35:45;2.60;;;0.60;;
12906;SDS011;6521;50.498;8.474;2023-07-28T07:38:16;1.45;;;0.70;;
12906;SDS011;6521;50.498;8.474;2023-07-28T07:40:46;1.50;;;0.60;;
12906;SDS011;6521;50.498;8.474;2023-07-28T07:43:18;0.50;;;0.50;;
12906;SDS011;6521;50.498;8.474;2023-07-28T07:45:50;0.55;;;0.55;;
12906;SDS011;6521;50.498;8.474;2023-07-28T07:48:24;2.30;;;0.70;;
12906;SDS011;6521;50.498;8.474;2023-07-28T07:51:04;1.33;;;0.77;;
12906;SDS011;6521;50.498;8.474;2023-07-28T07:53:35;2.28;;;0.70;;
12906;SDS011;6521;50.498;8.474;2023-07-28T07:56:09;3.22;;;0.73;;
12906;SDS011;6521;50.498;8.474;2023-07-28T07:58:42;0.77;;;0.70;;
12906;SDS011;6521;50.498;8.474;2023-07-28T08:01:13;2.45;;;0.68;;
12906;SDS011;6521;50.498;8.474;2023-07-28T08:03:44;1.00;;;0.73;;
12906;SDS011;6521;50.498;8.474;2023-07-28T08:06:15;0.75;;;0.60;;
12906;SDS011;6521;50.498;8.474;2023-07-28T08:08:46;1.02;;;0.70;;
12906;SDS011;6521;50.498;8.474;2023-07-28T08:11:17;2.30;;;0.70;;
12906;SDS011;6521;50.498;8.474;2023-07-28T08:13:48;3.08;;;0.73;;
12906;SDS011;6521;50.498;8.474;2023-07-28T08:16:19;1.85;;;0.70;;
12906;SDS011;6521;50.498;8.474;2023-07-28T08:18:49;1.85;;;0.77;;
12906;SDS011;6521;50.498;8.474;2023-07-28T08:21:20;3.70;;;0.70;;
12906;SDS011;6521;50.498;8.474;2023-07-28T08:23:52;0.70;;;0.70;;
12906;SDS011;6521;50.498;8.474;2023-07-28T08:26:23;0.70;;;0.70;;
12906;SDS011;6521;50.498;8.474;2023-07-28T08:28:53;1.00;;;0.80;;
12906;SDS011;6521;50.498;8.474;2023-07-28T08:31:29;3.63;;;0.90;;
12906;SDS011;6521;50.498;8.474;2023-07-28T08:34:00;0.82;;;0.52;;
12906;SDS011;6521;50.498;8.474;2023-07-28T08:36:31;2.90;;;0.52;;
12906;SDS011;6521;50.498;8.474;2023-07-28T08:39:02;3.42;;;0.60;;
12906;SDS011;6521;50.498;8.474;2023-07-28T08:41:34;0.80;;;0.80;;
12906;SDS011;6521;50.498;8.474;2023-07-28T08:44:07;0.75;;;0.70;;
12906;SDS011;6521;50.498;8.474;2023-07-28T08:46:37;0.68;;;0.50;;
12906;SDS011;6521;50.498;8.474;2023-07-28T08:49:08;2.70;;;0.77;;
12906;SDS011;6521;50.498;8.474;2023-07-28T08:51:41;1.45;;;0.50;;
12906;SDS011;6521;50.498;8.474;2023-07-28T08:54:13;2.65;;;0.63;;
12906;SDS011;6521;50.498;8.474;2023-07-28T08:56:44;1.15;;;0.50;;
12906;SDS011;6521;50.498;8.474;2023-07-28T08:59:27;2.75;;;0.95;;
12906;SDS011;6521;50.498;8.474;2023-07-28T09:01:59;1.83;;;0.70;;
12906;SDS011;6521;50.498;8.474;2023-07-28T09:04:30;1.45;;;0.80;;
12906;SDS011;6521;50.498;8.474;2023-07-28T09:07:03;0.80;;;0.80;;
12906;SDS011;6521;50.498;8.474;2023-07-28T09:09:35;4.75;;;0.80;;
12906;SDS011;6521;50.498;8.474;2023-07-28T09:12:07;0.80;;;0.80;;
12906;SDS011;6521;50.498;8.474;2023-07-28T09:14:41;1.45;;;0.55;;
12906;SDS011;6521;50.498;8.474;2023-07-28T09:17:12;0.70;;;0.70;;
12906;SDS011;6521;50.498;8.474;2023-07-28T09:19:53;0.73;;;0.73;;
12906;SDS011;6521;50.498;8.474;2023-07-28T09:22:26;2.45;;;0.60;;
12906;SDS011;6521;50.498;8.474;2023-07-28T09:25:00;0.93;;;0.75;;
12906;SDS011;6521;50.498;8.474;2023-07-28T09:27:50;1.55;;;0.93;;
12906;SDS011;6521;50.498;8.474;2023-07-28T09:30:22;0.63;;;0.63;;
12906;SDS011;6521;50.498;8.474;2023-07-28T09:32:55;1.40;;;0.73;;
12906;SDS011;6521;50.498;8.474;2023-07-28T09:35:28;1.75;;;0.90;;
12906;SDS011;6521;50.498;8.474;2023-07-28T09:37:59;0.77;;;0.77;;
12906;SDS011;6521;50.498;8.474;2023-07-28T09:40:30;3.25;;;0.70;;
12906;SDS011;6521;50.498;8.474;2023-07-28T09:43:02;0.70;;;0.70;;
12906;SDS011;6521;50.498;8.474;2023-07-28T09:45:33;0.65;;;0.52;;
12906;SDS011;6521;50.498;8.474;2023-07-28T09:48:06;1.73;;;0.65;;
12906;SDS011;6521;50.498;8.474;2023-07-28T09:50:42;0.68;;;0.68;;
12906;SDS011;6521;50.498;8.474;2023-07-28T09:53:15;0.65;;;0.65;;
12906;SDS011;6521;50.498;8.474;2023-07-28T09:55:47;1.00;;;0.60;;
12906;SDS011;6521;50.498;8.474;2023-07-28T09:58:23;2.60;;;0.70;;
12906;SDS011;6521;50.498;8.474;2023-07-28T10:00:55;0.68;;;0.68;;
12906;SDS011;6521;50.498;8.474;2023-07-28T10:03:27;1.25;;;0.80;;
12906;SDS011;6521;50.498;8.474;2023-07-28T10:05:59;1.67;;;0.90;;
12906;SDS011;6521;50.498;8.474;2023-07-28T10:08:30;0.95;;;0.82;;
12906;SDS011;6521;50.498;8.474;2023-07-28T10:11:02;0.93;;;0.70;;
12906;SDS011;6521;50.498;8.474;2023-07-28T10:13:41;0.80;;;0.80;;
12906;SDS011;6521;50.498;8.474;2023-07-28T10:16:13;1.25;;;0.82;;
12906;SDS011;6521;50.498;8.474;2023-07-28T10:18:54;6.53;;;0.98;;
12906;SDS011;6521;50.498;8.474;2023-07-28T10:21:27;3.28;;;0.80;;
12906;SDS011;6521;50.498;8.474;2023-07-28T10:23:58;0.77;;;0.70;;
12906;SDS011;6521;50.498;8.474;2023-07-28T10:26:40;0.70;;;0.63;;
12906;SDS011;6521;50.498;8.474;2023-07-28T10:29:12;0.60;;;0.60;;
12906;SDS011;6521;50.498;8.474;2023-07-28T10:31:51;0.73;;;0.73;;
12906;SDS011;6521;50.498;8.474;2023-07-28T10:34:28;0.77;;;0.73;;
12906;SDS011;6521;50.498;8.474;2023-07-28T10:36:59;2.13;;;0.70;;
12906;SDS011;6521;50.498;8.474;2023-07-28T10:39:30;2.45;;;0.80;;
12906;SDS011;6521;50.498;8.474;2023-07-28T10:42:05;0.70;;;0.70;;
12906;SDS011;6521;50.498;8.474;2023-07-28T10:44:39;1.77;;;0.70;;
12906;SDS011;6521;50.498;8.474;2023-07-28T10:47:10;2.42;;;0.52;;
12906;SDS011;6521;50.498;8.474;2023-07-28T10:49:42;0.60;;;0.60;;
12906;SDS011;6521;50.498;8.474;2023-07-28T10:52:12;1.98;;;0.60;;
12906;SDS011;6521;50.498;8.474;2023-07-28T10:54:43;0.50;;;0.50;;
12906;SDS011;6521;50.498;8.474;2023-07-28T10:57:14;1.25;;;0.73;;
12906;SDS011;6521;50.498;8.474;2023-07-28T10:59:45;4.22;;;0.70;;
12906;SDS011;6521;50.498;8.474;2023-07-28T11:02:17;0.75;;;0.68;;
12906;SDS011;6521;50.498;8.474;2023-07-28T11:04:47;0.80;;;0.80;;
12906;SDS011;6521;50.498;8.474;2023-07-28T11:07:19;0.98;;;0.82;;
12906;SDS011;6521;50.498;8.474;2023-07-28T11:09:51;0.88;;;0.60;;
12906;SDS011;6521;50.498;8.474;2023-07-28T11:12:22;1.50;;;0.70;;
12906;SDS011;6521;50.498;8.474;2023-07-28T11:14:53;1.33;;;1.10;;
12906;SDS011;6521;50.498;8.474;2023-07-28T11:17:25;0.80;;;0.80;;
12906;SDS011;6521;50.498;8.474;2023-07-28T11:19:57;0.70;;;0.70;;
12906;SDS011;6521;50.498;8.474;2023-07-28T11:22:29;1.00;;;0.90;;
12906;SDS011;6521;50.498;8.474;2023-07-28T11:25:00;1.30;;;0.70;;
12906;SDS011;6521;50.498;8.474;2023-07-28T11:27:31;0.60;;;0.60;;
12906;SDS011;6521;50.498;8.474;2023-07-28T11:30:02;3.97;;;0.75;;
12906;SDS011;6521;50.498;8.474;2023-07-28T11:32:37;0.80;;;0.80;;
12906;SDS011;6521;50.498;8.474;2023-07-28T11:35:09;1.67;;;0.70;;
12906;SDS011;6521;50.498;8.474;2023-07-28T11:37:43;2.22;;;0.90;;
12906;SDS011;6521;50.498;8.474;2023-07-28T11:40:16;0.80;;;0.80;;
12906;SDS011;6521;50.498;8.474;2023-07-28T11:42:51;0.60;;;0.60;;
12906;SDS011;6521;50.498;8.474;2023-07-28T11:45:24;0.85;;;0.68;;
12906;SDS011;6521;50.498;8.474;2023-07-28T11:47:59;1.33;;;0.63;;
12906;SDS011;6521;50.498;8.474;2023-07-28T11:50:36;0.73;;;0.70;;
12906;SDS011;6521;50.498;8.474;2023-07-28T11:53:08;1.05;;;0.73;;
12906;SDS011;6521;50.498;8.474;2023-07-28T11:55:40;0.60;;;0.60;;
12906;SDS011;6521;50.498;8.474;2023-07-28T11:58:12;1.67;;;0.70;;
12906;SDS011;6521;50.498;8.474;2023-07-28T12:00:43;0.70;;;0.70;;
12906;SDS011;6521;50.498;8.474;2023-07-28T12:03:14;0.60;;;0.60;;
12906;SDS011;6521;50.498;8.474;2023-07-28T12:08:37;1.50;;;0.70;;
12906;SDS011;6521;50.498;8.474;2023-07-28T12:11:13;2.40;;;0.70;;
12906;SDS011;6521;50.498;8.474;2023-07-28T12:13:48;2.00;;;0.70;;
12906;SDS011;6521;50.498;8.474;2023-07-28T12:16:38;0.80;;;0.80;;
12906;SDS011;6521;50.498;8.474;2023-07-28T12:19:10;0.73;;;0.70;;
12906;SDS011;6521;50.498;8.474;2023-07-28T12:21:43;0.80;;;0.80;;
12906;SDS011;6521;50.498;8.474;2023-07-28T12:24:14;2.47;;;0.85;;
12906;SDS011;6521;50.498;8.474;2023-07-28T12:26:48;0.80;;;0.80;;
12906;SDS011;6521;50.498;8.474;2023-07-28T12:29:21;0.77;;;0.77;;
12906;SDS011;6521;50.498;8.474;2023-07-28T12:31:52;1.10;;;1.00;;
12906;SDS011;6521;50.498;8.474;2023-07-28T12:34:23;1.20;;;1.10;;
12906;SDS011;6521;50.498;8.474;2023-07-28T12:36:53;1.25;;;1.08;;
12906;SDS011;6521;50.498;8.474;2023-07-28T12:39:24;8.07;;;1.00;;
12906;SDS011;6521;50.498;8.474;2023-07-28T12:41:55;0.98;;;0.88;;
12906;SDS011;6521;50.498;8.474;2023-07-28T12:44:25;2.40;;;1.00;;
12906;SDS011;6521;50.498;8.474;2023-07-28T12:46:59;1.00;;;0.90;;
12906;SDS011;6521;50.498;8.474;2023-07-28T12:49:30;0.80;;;0.80;;
12906;SDS011;6521;50.498;8.474;2023-07-28T12:52:05;0.90;;;0.90;;
12906;SDS011;6521;50.498;8.474;2023-07-28T12:54:40;0.90;;;0.90;;
12906;SDS011;6521;50.498;8.474;2023-07-28T12:57:13;1.00;;;1.00;;
12906;SDS011;6521;50.498;8.474;2023-07-28T12:59:43;0.98;;;0.98;;
12906;SDS011;6521;50.498;8.474;2023-07-28T13:02:26;3.05;;;1.08;;
12906;SDS011;6521;50.498;8.474;2023-07-28T13:04:57;3.85;;;0.95;;
12906;SDS011;6521;50.498;8.474;2023-07-28T13:07:29;3.25;;;1.00;;
12906;SDS011;6521;50.498;8.474;2023-07-28T13:10:03;0.80;;;0.80;;
12906;SDS011;6521;50.498;8.474;2023-07-28T13:12:35;3.33;;;1.35;;
12906;SDS011;6521;50.498;8.474;2023-07-28T13:15:06;1.15;;;1.05;;
12906;SDS011;6521;50.498;8.474;2023-07-28T13:17:37;3.95;;;1.10;;
12906;SDS011;6521;50.498;8.474;2023-07-28T13:20:08;1.27;;;1.17;;
12906;SDS011;6521;50.498;8.474;2023-07-28T13:22:39;2.50;;;1.20;;
12906;SDS011;6521;50.498;8.474;2023-07-28T13:25:10;0.95;;;0.95;;
12906;SDS011;6521;50.498;8.474;2023-07-28T13:27:42;1.55;;;1.27;;
12906;SDS011;6521;50.498;8.474;2023-07-28T13:30:13;1.58;;;1.13;;
12906;SDS011;6521;50.498;8.474;2023-07-28T13:32:44;6.28;;;1.30;;
12906;SDS011;6521;50.498;8.474;2023-07-28T13:35:14;1.60;;;1.50;;
12906;SDS011;6521;50.498;8.474;2023-07-28T13:37:45;2.47;;;1.23;;
12906;SDS011;6521;50.498;8.474;2023-07-28T13:40:16;3.55;;;1.33;;
12906;SDS011;6521;50.498;8.474;2023-07-28T13:42:47;2.70;;;1.40;;
12906;SDS011;6521;50.498;8.474;2023-07-28T13:45:19;3.22;;;1.10;;
12906;SDS011;6521;50.498;8.474;2023-07-28T13:47:50;2.90;;;1.42;;
12906;SDS011;6521;50.498;8.474;2023-07-28T13:50:21;1.27;;;1.17;;
12906;SDS011;6521;50.498;8.474;2023-07-28T13:52:51;1.88;;;1.45;;
12906;SDS011;6521;50.498;8.474;2023-07-28T13:55:22;1.58;;;1.48;;
12906;SDS011;6521;50.498;8.474;2023-07-28T13:57:53;1.60;;;1.50;;
12906;SDS011;6521;50.498;8.474;2023-07-28T14:00:24;1.50;;;1.40;;
12906;SDS011;6521;50.498;8.474;2023-07-28T14:02:55;1.40;;;1.30;;
12906;SDS011;6521;50.498;8.474;2023-07-28T14:05:26;1.88;;;1.50;;
12906;SDS011;6521;50.498;8.474;2023-07-28T14:08:01;1.65;;;1.48;;
12906;SDS011;6521;50.498;8.474;2023-07-28T14:10:31;3.95;;;1.70;;
12906;SDS011;6521;50.498;8.474;2023-07-28T14:13:02;2.22;;;1.70;;
12906;SDS011;6521;50.498;8.474;2023-07-28T14:15:33;1.83;;;1.50;;
12906;SDS011;6521;50.498;8.474;2023-07-28T14:18:04;1.92;;;1.58;;
12906;SDS011;6521;50.498;8.474;2023-07-28T14:20:36;3.65;;;1.50;;
12906;SDS011;6521;50.498;8.474;2023-07-28T14:23:20;3.58;;;1.75;;
12906;SDS011;6521;50.498;8.474;2023-07-28T14:25:53;8.02;;;2.03;;
12906;SDS011;6521;50.498;8.474;2023-07-28T14:28:24;1.83;;;1.60;;
12906;SDS011;6521;50.498;8.474;2023-07-28T14:30:55;2.00;;;1.85;;
12906;SDS011;6521;50.498;8.474;2023-07-28T14:33:26;1.65;;;1.45;;
12906;SDS011;6521;50.498;8.474;2023-07-28T14:35:57;2.33;;;2.03;;
12906;SDS011;6521;50.498;8.474;2023-07-28T14:38:29;4.63;;;1.65;;
12906;SDS011;6521;50.498;8.474;2023-07-28T14:40:59;1.98;;;1.88;;
12906;SDS011;6521;50.498;8.474;2023-07-28T14:43:31;2.30;;;1.80;;
12906;SDS011;6521;50.498;8.474;2023-07-28T14:46:02;1.90;;;1.80;;
12906;SDS011;6521;50.498;8.474;2023-07-28T14:48:33;1.70;;;1.60;;
12906;SDS011;6521;50.498;8.474;2023-07-28T14:51:05;1.90;;;1.60;;
12906;SDS011;6521;50.498;8.474;2023-07-28T14:53:38;1.63;;;1.45;;
12906;SDS011;6521;50.498;8.474;2023-07-28T14:56:10;1.45;;;1.35;;
12906;SDS011;6521;50.498;8.474;2023-07-28T14:58:41;1.52;;;1.42;;
12906;SDS011;6521;50.498;8.474;2023-07-28T15:01:12;1.48;;;1.38;;
12906;SDS011;6521;50.498;8.474;2023-07-28T15:03:43;4.03;;;1.40;;
12906;SDS011;6521;50.498;8.474;2023-07-28T15:06:14;1.92;;;1.50;;
12906;SDS011;6521;50.498;8.474;2023-07-28T15:08:45;1.58;;;1.48;;
12906;SDS011;6521;50.498;8.474;2023-07-28T15:11:20;1.38;;;1.27;;
12906;SDS011;6521;50.498;8.474;2023-07-28T15:13:51;1.48;;;1.35;;
12906;SDS011;6521;50.498;8.474;2023-07-28T15:16:21;1.45;;;1.20;;
12906;SDS011;6521;50.498;8.474;2023-07-28T15:18:52;1.67;;;1.40;;
12906;SDS011;6521;50.498;8.474;2023-07-28T15:21:23;2.50;;;2.30;;
12906;SDS011;6521;50.498;8.474;2023-07-28T15:23:54;3.55;;;3.10;;
12906;SDS011;6521;50.498;8.474;2023-07-28T15:26:25;4.70;;;2.50;;
12906;SDS011;6521;50.498;8.474;2023-07-28T15:28:56;1.58;;;1.48;;
12906;SDS011;6521;50.498;8.474;2023-07-28T15:31:28;1.63;;;1.52;;
12906;SDS011;6521;50.498;8.474;2023-07-28T15:33:59;1.20;;;1.10;;
12906;SDS011;6521;50.498;8.474;2023-07-28T15:36:30;4.25;;;1.65;;
12906;SDS011;6521;50.498;8.474;2023-07-28T15:39:00;2.30;;;2.10;;